createdAt,value
2022-12-07T00:01:17.246Z,54.33
2022-12-07T00:06:12.178Z,57.28
2022-12-07T00:11:10.545Z,57.90
2022-12-07T00:16:05.885Z,53.17
2022-12-07T00:21:07.267Z,48.95
2022-12-07T00:26:37.049Z,53.65
2022-12-07T00:31:34.407Z,56.33
2022-12-07T00:36:27.787Z,48.67
2022-12-07T00:41:23.720Z,50.58
2022-12-07T00:46:18.027Z,55.25
2022-12-07T00:51:16.988Z,51.20
2022-12-07T00:56:15.138Z,45.67
2022-12-07T01:01:09.980Z,46.83
2022-12-07T01:06:03.568Z,48.08
2022-12-07T01:11:00.785Z,45.47
2022-12-07T01:15:57.639Z,47.83
2022-12-07T01:21:22.559Z,47.28
2022-12-07T01:26:21.403Z,51.20
2022-12-07T01:31:18.453Z,44.08
2022-12-07T01:36:20.206Z,52.35
2022-12-07T01:41:14.482Z,49.80
2022-12-07T01:46:08.790Z,53.78
2022-12-07T01:51:05.852Z,50.65
2022-12-07T01:56:00.339Z,49.80
2022-12-07T02:00:53.800Z,48.67
2022-12-07T02:05:48.987Z,44.20
2022-12-07T02:10:42.810Z,45.90
2022-12-07T02:15:42.415Z,51.60
2022-12-07T02:21:17.531Z,48.72
2022-12-07T02:26:29.844Z,51.03
2022-12-07T02:31:23.286Z,49.97
2022-12-07T02:36:26.176Z,48.92
2022-12-07T02:42:02.942Z,47.87
2022-12-07T02:47:00.127Z,46.65
2022-12-07T02:51:54.460Z,44.95
2022-12-07T02:57:02.672Z,45.22
2022-12-07T03:02:16.743Z,46.15
2022-12-07T03:07:35.980Z,48.25
2022-12-07T03:12:49.019Z,48.45
2022-12-07T03:17:43.509Z,43.35
2022-12-07T03:22:37.980Z,42.28
2022-12-07T03:27:44.618Z,43.30
2022-12-07T03:32:49.595Z,46.00
2022-12-07T03:37:50.240Z,48.50
2022-12-07T03:42:44.342Z,46.38
2022-12-07T03:52:39.008Z,40.80
2022-12-07T03:57:32.151Z,46.22
2022-12-07T04:02:27.767Z,43.80
2022-12-07T04:07:21.838Z,42.70
2022-12-07T04:12:15.245Z,42.90
2022-12-07T04:17:08.398Z,43.55
2022-12-07T04:22:03.443Z,40.42
2022-12-07T04:26:58.365Z,46.63
2022-12-07T04:31:51.794Z,43.15
2022-12-07T04:36:45.823Z,46.80
2022-12-07T04:41:40.071Z,44.08
2022-12-07T04:46:33.150Z,43.83
2022-12-07T04:51:29.391Z,49.40
2022-12-07T04:56:24.210Z,44.20
2022-12-07T05:01:19.649Z,42.25
2022-12-07T05:06:13.761Z,43.08
2022-12-07T05:11:08.952Z,44.25
2022-12-07T05:16:02.714Z,49.38
2022-12-07T05:20:56.946Z,48.28
2022-12-07T05:25:51.218Z,43.90
2022-12-07T05:30:44.723Z,45.85
2022-12-07T05:35:39.790Z,45.60
2022-12-07T05:40:33.987Z,42.40
2022-12-07T05:45:28.165Z,41.10
2022-12-07T05:50:22.986Z,39.83
2022-12-07T05:55:26.966Z,37.22
2022-12-07T06:00:22.449Z,40.47
2022-12-07T06:05:16.889Z,39.53
2022-12-07T06:10:12.777Z,44.42
2022-12-07T06:15:07.293Z,35.97
2022-12-07T06:20:01.837Z,37.60
2022-12-07T06:24:55.843Z,36.80
2022-12-07T06:29:54.174Z,35.33
2022-12-07T06:34:48.559Z,37.70
2022-12-07T06:39:42.402Z,36.97
2022-12-07T06:49:29.066Z,37.50
2022-12-07T06:54:24.438Z,34.47
2022-12-07T06:59:18.238Z,38.78
2022-12-07T07:04:12.266Z,36.97
2022-12-07T07:14:03.805Z,41.17
2022-12-07T07:18:57.246Z,31.98
2022-12-07T07:28:43.219Z,35.47
2022-12-07T07:33:37.090Z,29.42
2022-12-07T07:43:23.542Z,33.95
2022-12-07T07:48:17.119Z,31.67
2022-12-07T07:53:10.583Z,32.35
2022-12-07T07:58:04.787Z,38.10
2022-12-07T08:02:58.467Z,33.85
2022-12-07T08:13:03.220Z,30.42
2022-12-07T08:17:57.233Z,36.38
2022-12-07T08:22:51.267Z,34.83
2022-12-07T08:32:38.447Z,34.13
2022-12-07T08:37:33.005Z,30.58
2022-12-07T08:42:31.323Z,33.75
2022-12-07T08:47:25.853Z,33.40
2022-12-07T08:52:19.453Z,32.42
2022-12-07T09:02:07.027Z,39.17
2022-12-07T09:07:01.162Z,37.45
2022-12-07T09:11:55.209Z,41.95
2022-12-07T09:16:48.504Z,39.63
2022-12-07T09:21:42.253Z,45.30
2022-12-07T09:26:36.957Z,45.38
2022-12-07T09:31:30.751Z,41.63
2022-12-07T09:36:24.959Z,41.80
2022-12-07T09:41:19.439Z,43.13
2022-12-07T09:46:18.724Z,41.45
2022-12-07T09:51:25.833Z,45.95
2022-12-07T09:56:21.404Z,46.00
2022-12-07T10:01:16.091Z,45.60
2022-12-07T10:06:16.566Z,47.55
2022-12-07T10:11:12.586Z,45.50
2022-12-07T10:16:07.447Z,50.38
2022-12-07T10:21:19.487Z,49.53
2022-12-07T10:26:37.042Z,45.67
2022-12-07T10:31:32.109Z,45.53
2022-12-07T10:36:34.158Z,48.08
2022-12-07T10:41:28.087Z,49.00
2022-12-07T10:46:28.052Z,47.45
2022-12-07T10:51:39.020Z,46.08
2022-12-07T10:56:59.795Z,47.53
2022-12-07T11:02:20.569Z,45.85
2022-12-07T11:07:22.017Z,44.25
2022-12-07T11:12:40.150Z,42.65
2022-12-07T11:17:57.073Z,44.17
2022-12-07T11:23:31.702Z,42.85
2022-12-07T11:29:02.830Z,48.25
2022-12-07T11:34:17.443Z,45.40
2022-12-07T11:39:35.642Z,43.70
2022-12-07T11:44:54.841Z,41.72
2022-12-07T11:50:05.423Z,42.05
2022-12-07T11:54:59.307Z,46.72
2022-12-07T12:00:38.827Z,39.83
2022-12-07T12:05:32.304Z,38.05
2022-12-07T12:11:22.120Z,40.35
2022-12-07T12:16:29.290Z,42.00
2022-12-07T12:21:29.093Z,39.95
2022-12-07T12:26:28.852Z,41.22
2022-12-07T12:31:22.529Z,37.88
2022-12-07T12:36:32.022Z,38.53
2022-12-07T12:41:37.389Z,42.83
2022-12-07T12:46:35.359Z,43.28
2022-12-07T12:51:41.318Z,41.15
2022-12-07T12:56:44.900Z,37.35
2022-12-07T13:01:42.271Z,43.65
2022-12-07T13:06:39.136Z,37.17
2022-12-07T13:12:00.097Z,38.30
2022-12-07T13:17:12.493Z,37.28
2022-12-07T13:22:31.467Z,38.23
2022-12-07T13:27:45.751Z,35.72
2022-12-07T13:32:59.299Z,34.88
2022-12-07T13:38:12.610Z,34.55
2022-12-07T13:43:26.712Z,40.70
2022-12-07T13:48:49.425Z,37.80
2022-12-07T13:53:48.937Z,38.83
2022-12-07T13:58:42.978Z,38.88
2022-12-07T14:03:37.849Z,43.70
2022-12-07T14:08:32.938Z,39.88
2022-12-07T14:13:57.451Z,35.50
2022-12-07T14:19:29.503Z,40.30
2022-12-07T14:24:23.425Z,37.90
2022-12-07T14:29:23.741Z,40.60
2022-12-07T14:34:17.963Z,39.03
2022-12-07T14:39:13.725Z,42.22
2022-12-07T14:44:35.246Z,40.88
2022-12-07T14:49:34.499Z,44.95
2022-12-07T14:54:29.442Z,40.17
2022-12-07T14:59:45.206Z,41.67
2022-12-07T15:04:58.880Z,39.42
2022-12-07T15:09:52.884Z,42.95
2022-12-07T15:14:47.543Z,44.63
2022-12-07T15:19:41.520Z,43.42
2022-12-07T15:24:35.662Z,41.60
2022-12-07T15:29:30.095Z,39.97
2022-12-07T15:34:23.681Z,34.20
2022-12-07T15:39:17.657Z,45.60
2022-12-07T15:44:33.728Z,47.47
2022-12-07T15:49:27.828Z,38.78
2022-12-07T15:54:28.114Z,34.78
2022-12-07T15:59:22.305Z,48.22
2022-12-07T16:04:16.516Z,41.28
2022-12-07T16:09:10.191Z,38.60
2022-12-07T16:14:03.521Z,39.13
2022-12-07T16:18:57.023Z,40.92
2022-12-07T16:23:50.413Z,47.97
2022-12-07T16:33:37.609Z,47.35
2022-12-07T16:38:31.095Z,50.35
2022-12-07T16:43:23.993Z,55.33
2022-12-07T16:48:17.601Z,48.13
2022-12-07T16:53:11.614Z,54.38
2022-12-07T16:58:06.252Z,51.03
2022-12-07T17:02:59.368Z,52.17
2022-12-07T17:07:53.608Z,50.92
2022-12-07T17:12:47.443Z,50.95
2022-12-07T17:17:41.601Z,52.08
2022-12-07T17:27:29.985Z,55.92
2022-12-07T17:32:24.416Z,56.63
2022-12-07T17:37:18.159Z,61.38
2022-12-07T17:42:30.712Z,68.55
2022-12-07T17:47:25.525Z,57.28
2022-12-07T17:52:36.870Z,60.17
2022-12-07T17:57:31.051Z,68.10
2022-12-07T18:02:24.852Z,51.10
2022-12-07T18:07:18.578Z,45.72
2022-12-07T18:12:12.637Z,47.67
2022-12-07T18:17:06.592Z,52.70
2022-12-07T18:21:59.676Z,51.42
2022-12-07T18:26:53.842Z,55.22
2022-12-07T18:31:48.426Z,52.45
2022-12-07T18:36:44.165Z,55.17
2022-12-07T18:41:37.500Z,52.72
2022-12-07T18:46:31.438Z,52.50
2022-12-07T18:51:32.123Z,56.80
2022-12-07T18:56:27.338Z,60.05
2022-12-07T19:01:21.727Z,72.57
2022-12-07T19:06:15.313Z,61.00
2022-12-07T19:11:28.718Z,64.53
2022-12-07T19:16:22.834Z,89.03
2022-12-07T19:21:15.866Z,140.45
2022-12-07T19:26:09.123Z,79.60
2022-12-07T19:31:09.812Z,194.50
2022-12-07T19:36:03.599Z,144.55
2022-12-07T19:41:04.464Z,252.95
2022-12-07T19:45:58.171Z,113.82
2022-12-07T19:50:52.401Z,121.55
2022-12-07T19:55:46.466Z,134.35
2022-12-07T20:00:40.158Z,123.03
2022-12-07T20:05:34.930Z,117.95
2022-12-07T20:10:34.176Z,128.25
2022-12-07T20:15:27.860Z,117.00
2022-12-07T20:20:21.602Z,122.40
2022-12-07T20:30:12.620Z,201.77
2022-12-07T20:35:07.097Z,138.18
2022-12-07T20:40:02.472Z,181.88
2022-12-07T20:49:55.151Z,166.35
2022-12-07T20:54:49.446Z,102.65
2022-12-07T21:04:36.802Z,65.97
2022-12-07T21:09:31.411Z,59.65
2022-12-07T21:14:25.381Z,50.35
2022-12-07T21:19:19.477Z,50.78
2022-12-07T21:24:13.746Z,55.55
2022-12-07T21:29:08.128Z,59.47
2022-12-07T21:38:54.773Z,54.38
2022-12-07T21:43:49.082Z,60.10
2022-12-07T21:48:42.544Z,55.55
2022-12-07T21:53:37.212Z,47.70
2022-12-07T21:58:32.498Z,50.58
2022-12-07T22:03:25.857Z,49.10
2022-12-07T22:08:20.133Z,48.28
2022-12-07T22:13:14.894Z,52.88
2022-12-07T22:18:10.084Z,61.03
2022-12-07T22:23:04.325Z,55.30
2022-12-07T22:27:58.688Z,58.50
2022-12-07T22:32:56.184Z,54.30
2022-12-07T22:37:50.624Z,43.88
2022-12-07T22:42:45.015Z,48.85
2022-12-07T22:47:40.175Z,53.55
2022-12-07T22:52:34.396Z,58.08
2022-12-07T22:57:31.417Z,52.55
2022-12-07T23:02:25.446Z,51.47
2022-12-07T23:07:19.473Z,48.88
2022-12-07T23:12:32.162Z,52.90
2022-12-07T23:17:25.566Z,61.67
2022-12-07T23:22:19.861Z,51.05
2022-12-07T23:27:13.358Z,56.92
2022-12-07T23:37:01.308Z,60.22
2022-12-07T23:41:54.920Z,57.72
2022-12-07T23:46:50.392Z,68.70
2022-12-07T23:51:44.054Z,62.00
2022-12-07T23:56:36.840Z,90.53
